createdAt,value
2023-03-10T00:02:26.480Z,90569.44
2023-03-10T00:05:12.541Z,90570.38
2023-03-10T00:07:58.310Z,90567.16
2023-03-10T00:10:44.165Z,90575.16
2023-03-10T00:13:47.711Z,90570.22
2023-03-10T00:16:45.696Z,90566.53
2023-03-10T00:19:31.754Z,90555.94
2023-03-10T00:22:17.622Z,90564.44
2023-03-10T00:25:03.563Z,90559.25
2023-03-10T00:27:49.428Z,90557.44
2023-03-10T00:30:35.242Z,90568.19
2023-03-10T00:33:21.153Z,90559.28
2023-03-10T00:36:06.970Z,90565.66
2023-03-10T00:38:53.084Z,90569.06
2023-03-10T00:41:39.048Z,90558.44
2023-03-10T00:44:25.082Z,90575.31
2023-03-10T00:47:10.901Z,90575.91
2023-03-10T00:49:56.743Z,90578.06
2023-03-10T00:52:42.598Z,90579.88
2023-03-10T00:55:28.550Z,90579.16
2023-03-10T00:58:14.330Z,90580.69
2023-03-10T01:01:00.170Z,90580.50
2023-03-10T01:03:46.053Z,90578.44
2023-03-10T01:06:31.920Z,90585.47
2023-03-10T01:09:17.673Z,90587.72
2023-03-10T01:12:03.443Z,90583.72
2023-03-10T01:14:49.282Z,90583.53
2023-03-10T01:17:35.175Z,90584.50
2023-03-10T01:20:21.006Z,90582.88
2023-03-10T01:23:06.941Z,90585.88
2023-03-10T01:25:52.781Z,90569.09
2023-03-10T01:28:38.648Z,90574.75
2023-03-10T01:31:24.611Z,90568.38
2023-03-10T01:34:10.411Z,90560.88
2023-03-10T01:36:56.280Z,90576.63
2023-03-10T01:39:42.154Z,90564.69
2023-03-10T01:42:27.976Z,90554.22
2023-03-10T01:45:13.902Z,90547.78
2023-03-10T01:47:59.759Z,90550.88
2023-03-10T01:50:45.637Z,90556.75
2023-03-10T01:53:31.579Z,90562.09
2023-03-10T01:56:17.370Z,90565.47
2023-03-10T01:59:03.292Z,90575.31
2023-03-10T02:01:49.181Z,90553.72
2023-03-10T02:04:34.820Z,90539.16
2023-03-10T02:07:20.703Z,90536.16
2023-03-10T02:10:06.407Z,90541.75
2023-03-10T02:12:52.306Z,90554.03
2023-03-10T02:15:38.205Z,90548.75
2023-03-10T02:18:24.290Z,90533.41
2023-03-10T02:21:10.612Z,90519.50
2023-03-10T02:24:01.396Z,90506.16
2023-03-10T02:26:47.614Z,90508.25
2023-03-10T02:29:33.499Z,90504.03
2023-03-10T02:32:19.534Z,90495.78
2023-03-10T02:35:05.294Z,90477.06
2023-03-10T02:37:51.230Z,90457.31
2023-03-10T02:40:37.068Z,90453.16
2023-03-10T02:43:22.909Z,90449.13
2023-03-10T02:46:08.889Z,90440.22
2023-03-10T02:48:54.987Z,90437.34
2023-03-10T02:51:40.919Z,90416.31
2023-03-10T02:54:26.801Z,90418.78
2023-03-10T02:57:12.550Z,90408.88
2023-03-10T02:59:58.456Z,90415.59
2023-03-10T03:02:44.312Z,90413.63
2023-03-10T03:05:30.215Z,90424.47
2023-03-10T03:08:16.270Z,90410.38
2023-03-10T03:11:02.080Z,90406.81
2023-03-10T03:13:48.035Z,90408.31
2023-03-10T03:16:34.009Z,90397.63
2023-03-10T03:19:19.877Z,90393.88
2023-03-10T03:22:05.842Z,90405.88
2023-03-10T03:24:51.776Z,90407.06
2023-03-10T03:27:37.772Z,90409.66
2023-03-10T03:30:23.846Z,90405.81
2023-03-10T03:33:09.733Z,90396.81
2023-03-10T03:35:55.668Z,90385.44
2023-03-10T03:38:41.443Z,90380.69
2023-03-10T03:41:27.200Z,90371.97
2023-03-10T03:44:13.081Z,90357.88
2023-03-10T03:46:58.890Z,90346.97
2023-03-10T03:49:44.804Z,90321.44
2023-03-10T03:52:30.525Z,90295.53
2023-03-10T03:55:16.379Z,90282.66
2023-03-10T03:58:02.252Z,90276.28
2023-03-10T04:00:49.785Z,90282.50
2023-03-10T04:03:37.425Z,90279.47
2023-03-10T04:06:23.330Z,90274.53
2023-03-10T04:09:09.178Z,90281.22
2023-03-10T04:11:55.047Z,90280.19
2023-03-10T04:14:40.941Z,90279.00
2023-03-10T04:17:26.756Z,90264.56
2023-03-10T04:20:12.727Z,90245.09
2023-03-10T04:22:58.712Z,90238.09
2023-03-10T04:25:44.548Z,90237.34
2023-03-10T04:28:30.505Z,90217.25
2023-03-10T04:31:16.582Z,90219.03
2023-03-10T04:34:02.556Z,90227.69
2023-03-10T04:36:48.595Z,90219.78
2023-03-10T04:39:34.377Z,90197.94
2023-03-10T04:42:20.373Z,90202.13
2023-03-10T04:45:06.292Z,90170.56
2023-03-10T04:47:52.207Z,90157.41
2023-03-10T04:50:37.981Z,90157.94
2023-03-10T04:53:23.731Z,90163.19
2023-03-10T04:56:09.682Z,90163.50
2023-03-10T04:58:55.546Z,90140.72
2023-03-10T05:01:41.458Z,90139.91
2023-03-10T05:04:27.732Z,90145.31
2023-03-10T05:07:13.498Z,90171.81
2023-03-10T05:09:59.233Z,90209.13
2023-03-10T05:12:45.208Z,90220.34
2023-03-10T05:15:30.844Z,90219.06
2023-03-10T05:18:18.814Z,90196.91
2023-03-10T05:21:04.641Z,90225.72
2023-03-10T05:23:50.381Z,90214.06
2023-03-10T05:26:36.321Z,90199.22
2023-03-10T05:29:22.183Z,90192.06
2023-03-10T05:32:08.156Z,90193.34
2023-03-10T05:34:54.192Z,90173.38
2023-03-10T05:37:39.987Z,90157.28
2023-03-10T05:40:25.921Z,90163.94
2023-03-10T05:43:11.888Z,90172.56
2023-03-10T05:45:57.642Z,90176.44
2023-03-10T05:48:43.502Z,90173.22
2023-03-10T05:51:29.309Z,90178.06
2023-03-10T05:54:15.201Z,90182.13
2023-03-10T05:57:01.170Z,90183.59
2023-03-10T05:59:46.906Z,90184.09
2023-03-10T06:02:32.839Z,90184.00
2023-03-10T06:05:18.673Z,90185.50
2023-03-10T06:08:04.505Z,90183.63
2023-03-10T06:10:50.252Z,90182.59
2023-03-10T06:13:36.068Z,90194.06
2023-03-10T06:16:22.000Z,90203.09
2023-03-10T06:19:07.926Z,90191.78
2023-03-10T06:21:53.805Z,90206.53
2023-03-10T06:24:39.878Z,90228.09
2023-03-10T06:27:25.725Z,90254.75
2023-03-10T06:30:11.503Z,90250.00
2023-03-10T06:32:57.457Z,90270.25
2023-03-10T06:35:45.301Z,90275.84
2023-03-10T06:38:31.173Z,90278.41
2023-03-10T06:41:16.957Z,90289.31
2023-03-10T06:44:02.737Z,90290.44
2023-03-10T06:46:48.636Z,90282.28
2023-03-10T06:49:34.636Z,90280.38
2023-03-10T06:52:20.481Z,90294.22
2023-03-10T06:55:06.357Z,90303.13
2023-03-10T06:57:52.121Z,90296.72
2023-03-10T07:00:38.019Z,90292.19
2023-03-10T07:03:23.848Z,90288.63
2023-03-10T07:06:09.617Z,90300.56
2023-03-10T07:08:55.474Z,90295.13
2023-03-10T07:11:41.342Z,90314.75
2023-03-10T07:14:27.276Z,90325.72
2023-03-10T07:17:13.343Z,90330.13
2023-03-10T07:19:59.208Z,90334.66
2023-03-10T07:22:45.232Z,90335.16
2023-03-10T07:25:31.095Z,90316.50
2023-03-10T07:28:16.893Z,90326.78
2023-03-10T07:31:02.876Z,90320.97
2023-03-10T07:33:48.649Z,90329.97
2023-03-10T07:36:34.424Z,90330.28
2023-03-10T07:39:20.404Z,90343.41
2023-03-10T07:42:06.202Z,90352.72
2023-03-10T07:44:52.060Z,90342.88
2023-03-10T07:47:37.989Z,90351.47
2023-03-10T07:50:23.795Z,90358.16
2023-03-10T07:53:09.661Z,90356.91
2023-03-10T07:55:55.465Z,90364.09
2023-03-10T07:58:41.284Z,90367.91
2023-03-10T08:01:27.098Z,90385.28
2023-03-10T08:04:12.986Z,90380.06
2023-03-10T08:07:01.029Z,90389.69
2023-03-10T08:09:46.887Z,90369.47
2023-03-10T08:12:32.777Z,90363.94
2023-03-10T08:15:18.584Z,90370.31
2023-03-10T08:18:04.308Z,90379.28
2023-03-10T08:20:50.269Z,90373.47
2023-03-10T08:23:36.790Z,90397.06
2023-03-10T08:26:22.891Z,90396.69
2023-03-10T08:29:08.767Z,90412.19
2023-03-10T08:31:54.678Z,90408.56
2023-03-10T08:34:40.620Z,90411.38
2023-03-10T08:37:26.376Z,90406.91
2023-03-10T08:40:12.100Z,90426.09
2023-03-10T08:42:58.056Z,90430.63
2023-03-10T08:45:44.083Z,90428.50
2023-03-10T08:48:29.959Z,90457.28
2023-03-10T08:51:16.618Z,90456.22
2023-03-10T08:54:02.714Z,90456.22
2023-03-10T08:56:48.622Z,90459.59
2023-03-10T08:59:34.566Z,90451.75
2023-03-10T09:02:20.599Z,90453.63
2023-03-10T09:05:06.723Z,90449.13
2023-03-10T09:07:52.713Z,90471.91
2023-03-10T09:10:38.463Z,90467.81
2023-03-10T09:13:24.289Z,90477.88
2023-03-10T09:16:11.421Z,90473.06
2023-03-10T09:18:57.494Z,90471.19
2023-03-10T09:21:43.350Z,90486.88
2023-03-10T09:24:29.210Z,90481.97
2023-03-10T09:27:15.180Z,90492.84
2023-03-10T09:30:01.603Z,90497.28
2023-03-10T09:32:47.810Z,90501.41
2023-03-10T09:35:33.765Z,90512.63
2023-03-10T09:38:19.824Z,90511.50
2023-03-10T09:41:08.355Z,90523.09
2023-03-10T09:43:55.528Z,90527.94
2023-03-10T09:46:41.818Z,90536.53
2023-03-10T09:49:27.554Z,90534.69
2023-03-10T09:52:15.589Z,90544.00
2023-03-10T09:55:02.661Z,90541.38
2023-03-10T09:57:48.387Z,90540.59
2023-03-10T10:00:34.275Z,90551.09
2023-03-10T10:03:20.201Z,90548.13
2023-03-10T10:06:06.035Z,90562.69
2023-03-10T10:09:03.447Z,90567.16
2023-03-10T10:11:49.844Z,90545.13
2023-03-10T10:14:38.401Z,90544.38
2023-03-10T10:17:26.251Z,90561.56
2023-03-10T10:20:12.247Z,90560.44
2023-03-10T10:22:58.232Z,90555.56
2023-03-10T10:25:44.139Z,90573.88
2023-03-10T10:28:29.916Z,90569.78
2023-03-10T10:31:15.832Z,90571.63
2023-03-10T10:34:01.803Z,90575.34
2023-03-10T10:36:47.690Z,90575.75
2023-03-10T10:39:33.609Z,90560.03
2023-03-10T10:42:21.580Z,90558.50
2023-03-10T10:45:07.441Z,90574.53
2023-03-10T10:47:53.310Z,90577.97
2023-03-10T10:50:38.990Z,90573.47
2023-03-10T10:53:24.976Z,90581.69
2023-03-10T10:56:10.874Z,90582.47
2023-03-10T10:58:56.704Z,90575.75
2023-03-10T11:01:42.554Z,90578.31
2023-03-10T11:04:28.469Z,90592.88
2023-03-10T11:07:14.381Z,90567.47
2023-03-10T11:10:00.248Z,90601.00
2023-03-10T11:12:46.072Z,90600.59
2023-03-10T11:15:31.968Z,90614.81
2023-03-10T11:18:17.801Z,90637.97
2023-03-10T11:21:03.715Z,90638.41
2023-03-10T11:23:49.536Z,90639.97
2023-03-10T11:26:35.381Z,90632.13
2023-03-10T11:29:21.292Z,90610.06
2023-03-10T11:32:07.498Z,90651.47
2023-03-10T11:34:53.311Z,90641.28
2023-03-10T11:37:39.309Z,90626.81
2023-03-10T11:40:25.093Z,90663.41
2023-03-10T11:43:11.014Z,90656.31
2023-03-10T11:45:56.980Z,90649.91
2023-03-10T11:48:42.729Z,90660.00
2023-03-10T11:51:28.713Z,90684.38
2023-03-10T11:54:14.646Z,90676.81
2023-03-10T11:57:00.512Z,90687.22
2023-03-10T11:59:46.432Z,90646.91
2023-03-10T12:02:32.248Z,90689.91
2023-03-10T12:05:18.141Z,90700.06
2023-03-10T12:08:04.167Z,90688.91
2023-03-10T12:10:49.949Z,90680.66
2023-03-10T12:13:35.743Z,90698.28
2023-03-10T12:16:21.774Z,90697.91
2023-03-10T12:19:07.708Z,90690.09
2023-03-10T12:21:53.598Z,90706.53
2023-03-10T12:24:39.442Z,90716.22
2023-03-10T12:27:25.355Z,90713.91
2023-03-10T12:30:11.246Z,90700.88
2023-03-10T12:32:57.174Z,90711.66
2023-03-10T12:35:43.251Z,90730.78
2023-03-10T12:38:29.185Z,90733.84
2023-03-10T12:41:15.177Z,90721.47
2023-03-10T12:44:01.101Z,90747.19
2023-03-10T12:46:47.078Z,90741.59
2023-03-10T12:49:33.297Z,90733.81
2023-03-10T12:52:19.151Z,90717.78
2023-03-10T12:55:05.066Z,90722.97
2023-03-10T12:57:50.936Z,90715.13
2023-03-10T13:00:36.970Z,90728.19
2023-03-10T13:03:23.020Z,90734.66
2023-03-10T13:06:08.932Z,90763.25
2023-03-10T13:08:54.799Z,90733.66
2023-03-10T13:11:40.716Z,90747.47
2023-03-10T13:14:26.529Z,90764.31
2023-03-10T13:17:12.351Z,90772.88
2023-03-10T13:19:58.172Z,90789.06
2023-03-10T13:22:43.919Z,90766.94
2023-03-10T13:25:29.851Z,90779.22
2023-03-10T13:28:15.822Z,90815.66
2023-03-10T13:31:01.594Z,90793.78
2023-03-10T13:33:53.270Z,90812.50
2023-03-10T13:36:39.952Z,90820.03
2023-03-10T13:39:27.604Z,90818.50
2023-03-10T13:42:13.686Z,90821.06
2023-03-10T13:44:59.546Z,90808.84
2023-03-10T13:47:45.385Z,90820.75
2023-03-10T13:50:31.295Z,90827.47
2023-03-10T13:53:16.995Z,90833.59
2023-03-10T13:56:02.732Z,90856.31
2023-03-10T13:58:48.674Z,90833.06
2023-03-10T14:01:34.796Z,90845.53
2023-03-10T14:04:21.010Z,90842.28
2023-03-10T14:07:06.848Z,90849.44
2023-03-10T14:09:52.610Z,90865.50
2023-03-10T14:12:38.404Z,90861.88
2023-03-10T14:15:24.540Z,90834.78
2023-03-10T14:18:10.342Z,90836.69
2023-03-10T14:20:56.131Z,90842.50
2023-03-10T14:23:42.088Z,90843.22
2023-03-10T14:26:27.955Z,90826.25
2023-03-10T14:29:13.818Z,90824.09
2023-03-10T14:31:59.648Z,90838.47
2023-03-10T14:34:45.488Z,90834.81
2023-03-10T14:37:31.370Z,90835.44
2023-03-10T14:40:17.261Z,90835.91
2023-03-10T14:43:03.142Z,90846.44
2023-03-10T14:45:49.121Z,90857.22
2023-03-10T14:48:35.331Z,90802.25
2023-03-10T14:51:34.624Z,90840.41
2023-03-10T14:54:21.275Z,90843.75
2023-03-10T14:57:07.086Z,90845.97
2023-03-10T14:59:52.859Z,90842.53
2023-03-10T15:02:38.750Z,90836.28
2023-03-10T15:05:27.570Z,90837.81
2023-03-10T15:08:15.930Z,90810.56
2023-03-10T15:11:01.748Z,90827.03
2023-03-10T15:13:47.771Z,90804.53
2023-03-10T15:16:33.775Z,90817.97
2023-03-10T15:19:19.684Z,90854.59
2023-03-10T15:22:05.537Z,90835.97
2023-03-10T15:24:51.238Z,90841.63
2023-03-10T15:27:37.207Z,90851.38
2023-03-10T15:30:23.131Z,90871.88
2023-03-10T15:33:09.018Z,90877.22
2023-03-10T15:35:54.854Z,90845.38
2023-03-10T15:38:40.773Z,90878.34
2023-03-10T15:41:26.678Z,90880.53
2023-03-10T15:44:12.582Z,90901.13
2023-03-10T15:46:58.530Z,90908.97
2023-03-10T15:49:44.657Z,90919.47
2023-03-10T15:52:30.658Z,90924.59
2023-03-10T15:55:16.445Z,90905.13
2023-03-10T15:58:02.418Z,90914.53
2023-03-10T16:00:48.255Z,90921.56
2023-03-10T16:03:34.161Z,90920.13
2023-03-10T16:06:20.054Z,90943.31
2023-03-10T16:09:08.630Z,90941.88
2023-03-10T16:11:54.905Z,90931.69
2023-03-10T16:14:40.815Z,90947.75
2023-03-10T16:17:26.656Z,90923.81
2023-03-10T16:20:12.686Z,90937.75
2023-03-10T16:22:58.531Z,90949.69
2023-03-10T16:25:44.262Z,90951.25
2023-03-10T16:28:30.210Z,90943.03
2023-03-10T16:31:16.164Z,90939.63
2023-03-10T16:34:02.218Z,90926.47
2023-03-10T16:36:48.137Z,90966.59
2023-03-10T16:39:34.004Z,90985.31
2023-03-10T16:42:20.004Z,90959.50
2023-03-10T16:45:05.936Z,90962.81
2023-03-10T16:47:51.802Z,90956.09
2023-03-10T16:50:37.738Z,90957.53
2023-03-10T16:53:23.473Z,90955.03
2023-03-10T16:56:09.500Z,90961.66
2023-03-10T16:58:55.358Z,90968.59
2023-03-10T17:01:41.151Z,90974.97
2023-03-10T17:04:27.087Z,90930.94
2023-03-10T17:07:12.834Z,90969.63
2023-03-10T17:09:58.679Z,90967.78
2023-03-10T17:12:44.690Z,90990.53
2023-03-10T17:15:30.586Z,90984.78
2023-03-10T17:18:16.528Z,90992.00
2023-03-10T17:21:02.481Z,90991.72
2023-03-10T17:23:48.295Z,91004.75
2023-03-10T17:26:34.228Z,91007.31
2023-03-10T17:29:20.065Z,91011.78
2023-03-10T17:32:06.052Z,91013.97
2023-03-10T17:34:51.987Z,91014.09
2023-03-10T17:37:37.773Z,91037.63
2023-03-10T17:40:23.688Z,91035.56
2023-03-10T17:43:23.255Z,91031.56
2023-03-10T17:46:15.738Z,91036.22
2023-03-10T17:49:01.819Z,91035.88
2023-03-10T17:51:47.924Z,91032.13
2023-03-10T17:54:33.702Z,91034.06
2023-03-10T17:57:19.770Z,91032.78
2023-03-10T18:00:05.719Z,91031.38
2023-03-10T18:02:51.627Z,91024.47
2023-03-10T18:05:37.498Z,91023.19
2023-03-10T18:08:23.202Z,91051.91
2023-03-10T18:11:09.068Z,91047.66
2023-03-10T18:13:57.052Z,91047.44
2023-03-10T18:16:42.794Z,91053.16
2023-03-10T18:19:28.778Z,91065.22
2023-03-10T18:22:14.742Z,91060.66
2023-03-10T18:25:00.702Z,91060.88
2023-03-10T18:27:46.677Z,91061.34
2023-03-10T18:30:32.479Z,91049.28
2023-03-10T18:33:18.289Z,91053.19
2023-03-10T18:36:04.152Z,91046.19
2023-03-10T18:38:49.987Z,91053.94
2023-03-10T18:41:36.028Z,91054.22
2023-03-10T18:44:21.942Z,91056.56
2023-03-10T18:47:07.751Z,91050.09
2023-03-10T18:49:53.566Z,91052.84
2023-03-10T18:52:39.486Z,91070.06
2023-03-10T18:55:25.312Z,91076.06
2023-03-10T18:58:11.257Z,91074.69
2023-03-10T19:00:57.086Z,91082.88
2023-03-10T19:03:43.065Z,91083.88
2023-03-10T19:06:28.873Z,91066.38
2023-03-10T19:09:14.802Z,91069.16
2023-03-10T19:12:00.636Z,91092.56
2023-03-10T19:14:46.431Z,91075.56
2023-03-10T19:17:32.337Z,91085.50
2023-03-10T19:20:18.276Z,91102.94
2023-03-10T19:23:04.006Z,91088.22
2023-03-10T19:25:49.850Z,91092.34
2023-03-10T19:28:35.555Z,91092.78
2023-03-10T19:31:21.581Z,91092.88
2023-03-10T19:34:07.550Z,91109.56
2023-03-10T19:36:53.373Z,91103.88
2023-03-10T19:39:39.237Z,91121.84
2023-03-10T19:42:25.178Z,91127.47
2023-03-10T19:45:11.013Z,91137.47
2023-03-10T19:47:57.062Z,91121.84
2023-03-10T19:50:42.887Z,91135.44
2023-03-10T19:53:28.930Z,91134.09
2023-03-10T19:56:14.928Z,91141.41
2023-03-10T19:59:00.756Z,91143.78
2023-03-10T20:01:46.726Z,91154.50
2023-03-10T20:04:32.628Z,91139.84
2023-03-10T20:07:18.542Z,91132.03
2023-03-10T20:10:04.469Z,91136.97
2023-03-10T20:12:50.297Z,91137.94
2023-03-10T20:15:36.074Z,91134.75
2023-03-10T20:18:21.960Z,91124.97
2023-03-10T20:21:07.767Z,91138.13
2023-03-10T20:23:55.850Z,91132.22
2023-03-10T20:26:42.354Z,91136.63
2023-03-10T20:29:28.156Z,91135.00
2023-03-10T20:32:14.116Z,91140.78
2023-03-10T20:35:00.068Z,91137.38
2023-03-10T20:37:46.030Z,91144.88
2023-03-10T20:40:31.892Z,91137.88
2023-03-10T20:43:17.603Z,91141.03
2023-03-10T20:46:03.486Z,91155.75
2023-03-10T20:48:49.455Z,91146.91
2023-03-10T20:51:35.405Z,91160.97
2023-03-10T20:54:21.207Z,91159.19
2023-03-10T20:57:07.164Z,91158.22
2023-03-10T20:59:53.389Z,91165.34
2023-03-10T21:02:39.390Z,91164.03
2023-03-10T21:05:25.262Z,91172.66
2023-03-10T21:08:11.181Z,91163.25
2023-03-10T21:10:56.924Z,91160.81
2023-03-10T21:13:42.766Z,91180.75
2023-03-10T21:16:28.827Z,91151.09
2023-03-10T21:19:14.590Z,91179.94
2023-03-10T21:22:03.160Z,91165.56
2023-03-10T21:24:49.459Z,91164.63
2023-03-10T21:27:35.163Z,91175.91
2023-03-10T21:30:21.098Z,91172.50
2023-03-10T21:33:07.176Z,91179.72
2023-03-10T21:35:53.093Z,91174.28
2023-03-10T21:38:38.978Z,91176.72
2023-03-10T21:41:24.778Z,91171.09
2023-03-10T21:44:10.552Z,91175.41
2023-03-10T21:46:56.415Z,91168.09
2023-03-10T21:49:42.213Z,91183.72
2023-03-10T21:52:27.968Z,91187.69
2023-03-10T21:55:13.873Z,91179.22
2023-03-10T21:57:59.653Z,91182.41
2023-03-10T22:00:45.540Z,91192.13
2023-03-10T22:03:31.301Z,91189.91
2023-03-10T22:06:17.248Z,91192.41
2023-03-10T22:09:05.223Z,91182.91
2023-03-10T22:11:50.924Z,91191.28
2023-03-10T22:14:36.899Z,91189.56
2023-03-10T22:17:22.804Z,91191.06
2023-03-10T22:20:08.674Z,91180.16
2023-03-10T22:22:54.514Z,91176.06
2023-03-10T22:25:40.314Z,91186.88
2023-03-10T22:28:26.125Z,91186.41
2023-03-10T22:31:12.135Z,91186.84
2023-03-10T22:33:59.061Z,91186.88
2023-03-10T22:36:44.894Z,91198.03
2023-03-10T22:39:30.769Z,91190.38
2023-03-10T22:42:16.623Z,91170.25
2023-03-10T22:45:02.501Z,91183.56
2023-03-10T22:47:48.415Z,91171.41
2023-03-10T22:50:34.295Z,91160.81
2023-03-10T22:53:20.153Z,91157.50
2023-03-10T22:56:05.969Z,91140.72
2023-03-10T22:58:51.944Z,91126.28
2023-03-10T23:01:37.794Z,91131.28
2023-03-10T23:04:23.658Z,91130.94
2023-03-10T23:07:09.484Z,91120.19
2023-03-10T23:09:55.189Z,91128.28
2023-03-10T23:12:40.998Z,91125.09
2023-03-10T23:15:26.964Z,91119.59
2023-03-10T23:18:12.774Z,91113.44
2023-03-10T23:20:58.739Z,91122.41
2023-03-10T23:23:44.608Z,91110.19
2023-03-10T23:26:30.462Z,91118.28
2023-03-10T23:29:16.408Z,91110.16
2023-03-10T23:32:02.101Z,91098.69
2023-03-10T23:34:47.930Z,91098.69
2023-03-10T23:37:33.759Z,91095.88
2023-03-10T23:40:19.676Z,91106.13
2023-03-10T23:43:05.662Z,91106.50
2023-03-10T23:45:51.447Z,91127.63
2023-03-10T23:48:37.314Z,91107.41
2023-03-10T23:51:23.248Z,91098.78
2023-03-10T23:54:09.104Z,91100.19
2023-03-10T23:56:54.881Z,91098.63
2023-03-10T23:59:40.691Z,91094.28
